createdAt,value
2018-05-17T00:01:36.517Z,8.37
2018-05-17T00:04:04.118Z,4.40
2018-05-17T00:06:31.780Z,7.90
2018-05-17T00:08:59.392Z,5.30
2018-05-17T00:11:27.023Z,5.80
2018-05-17T00:13:54.638Z,8.47
2018-05-17T00:16:22.235Z,6.57
2018-05-17T00:18:49.866Z,9.73
2018-05-17T00:21:17.466Z,6.60
2018-05-17T00:23:45.210Z,4.60
2018-05-17T00:26:12.818Z,5.00
2018-05-17T00:28:40.410Z,4.43
2018-05-17T00:31:08.071Z,5.70
2018-05-17T00:33:35.667Z,5.20
2018-05-17T00:36:03.330Z,7.13
2018-05-17T00:38:30.911Z,5.30
2018-05-17T00:40:58.760Z,4.87
2018-05-17T00:43:26.350Z,4.63
2018-05-17T00:45:53.948Z,4.00
2018-05-17T00:48:21.612Z,3.80
2018-05-17T00:50:49.187Z,5.00
2018-05-17T00:53:28.466Z,5.07
2018-05-17T00:55:56.067Z,4.30
2018-05-17T00:58:23.718Z,5.10
2018-05-17T01:00:51.312Z,4.23
2018-05-17T01:03:18.909Z,5.00
2018-05-17T01:05:46.528Z,4.77
2018-05-17T01:08:14.123Z,5.40
2018-05-17T01:10:41.750Z,5.93
2018-05-17T01:13:09.365Z,5.47
2018-05-17T01:15:37.016Z,6.17
2018-05-17T01:18:04.618Z,5.53
2018-05-17T01:20:32.213Z,6.70
2018-05-17T01:23:00.706Z,7.60
2018-05-17T01:25:28.351Z,13.37
2018-05-17T01:27:55.991Z,7.60
2018-05-17T01:30:23.583Z,9.30
2018-05-17T01:32:51.186Z,8.13
2018-05-17T01:35:18.807Z,10.10
2018-05-17T01:37:58.221Z,13.57
2018-05-17T01:40:25.870Z,12.20
2018-05-17T01:42:53.467Z,7.73
2018-05-17T01:45:21.062Z,9.03
2018-05-17T01:47:48.703Z,13.23
2018-05-17T01:50:16.303Z,11.90
2018-05-17T01:52:43.926Z,12.73
2018-05-17T01:55:11.520Z,26.93
2018-05-17T01:57:39.425Z,16.30
2018-05-17T02:00:07.042Z,18.30
2018-05-17T02:02:34.690Z,14.83
2018-05-17T02:05:02.308Z,12.80
2018-05-17T02:07:29.913Z,17.43
2018-05-17T02:09:57.542Z,16.63
2018-05-17T02:12:25.160Z,16.10
2018-05-17T02:14:52.962Z,17.40
2018-05-17T02:17:20.559Z,16.07
2018-05-17T02:19:48.172Z,18.00
2018-05-17T02:22:15.860Z,18.90
2018-05-17T02:24:43.466Z,19.17
2018-05-17T02:27:11.087Z,14.07
2018-05-17T02:29:38.682Z,18.27
2018-05-17T02:32:06.460Z,16.30
2018-05-17T02:34:34.094Z,23.83
2018-05-17T02:37:01.695Z,17.93
2018-05-17T02:39:29.344Z,16.57
2018-05-17T02:41:56.947Z,16.90
2018-05-17T02:44:24.581Z,20.60
2018-05-17T02:46:52.481Z,20.40
2018-05-17T02:49:20.148Z,21.73
2018-05-17T02:51:47.760Z,22.27
2018-05-17T02:54:15.380Z,22.00
2018-05-17T02:56:43.007Z,22.73
2018-05-17T02:59:10.632Z,23.33
2018-05-17T03:01:38.251Z,20.50
2018-05-17T03:04:05.857Z,23.50
2018-05-17T03:06:33.596Z,24.20
2018-05-17T03:09:01.195Z,22.40
2018-05-17T03:11:28.817Z,20.27
2018-05-17T03:13:56.465Z,24.43
2018-05-17T03:16:24.071Z,22.00
2018-05-17T03:18:51.712Z,24.60
2018-05-17T03:21:19.324Z,23.13
2018-05-17T03:23:47.343Z,29.00
2018-05-17T03:26:14.942Z,25.40
2018-05-17T03:28:42.544Z,20.33
2018-05-17T03:31:10.178Z,28.70
2018-05-17T03:33:37.791Z,28.40
2018-05-17T03:36:05.415Z,31.10
2018-05-17T03:38:33.034Z,32.03
2018-05-17T03:41:00.856Z,25.90
2018-05-17T03:43:28.464Z,24.53
2018-05-17T03:45:56.075Z,24.97
2018-05-17T03:48:23.703Z,22.97
2018-05-17T03:50:51.405Z,27.10
2018-05-17T03:53:19.063Z,26.30
2018-05-17T03:55:46.678Z,27.33
2018-05-17T03:58:14.279Z,36.13
2018-05-17T04:00:53.723Z,33.10
2018-05-17T04:03:33.146Z,26.60
2018-05-17T04:06:12.458Z,26.90
2018-05-17T04:08:40.138Z,26.30
2018-05-17T04:11:07.880Z,26.10
2018-05-17T04:13:35.499Z,28.83
2018-05-17T04:16:03.262Z,22.37
2018-05-17T04:18:30.892Z,34.80
2018-05-17T04:20:58.506Z,29.53
2018-05-17T04:23:26.139Z,30.53
2018-05-17T04:25:53.741Z,31.93
2018-05-17T04:28:21.373Z,29.93
2018-05-17T04:30:48.988Z,38.43
2018-05-17T04:33:16.791Z,34.50
2018-05-17T04:35:44.398Z,38.73
2018-05-17T04:38:12.000Z,41.37
2018-05-17T04:40:39.661Z,35.83
2018-05-17T04:43:07.275Z,32.30
2018-05-17T04:45:34.907Z,42.10
2018-05-17T04:48:02.542Z,44.67
2018-05-17T04:50:30.531Z,35.70
2018-05-17T04:52:58.200Z,36.37
2018-05-17T04:55:25.814Z,41.93
2018-05-17T04:57:53.446Z,43.63
2018-05-17T05:00:21.055Z,42.20
2018-05-17T05:02:48.725Z,40.37
2018-05-17T05:05:16.310Z,46.47
2018-05-17T05:07:44.070Z,43.73
2018-05-17T05:10:11.720Z,35.50
2018-05-17T05:12:39.325Z,46.67
2018-05-17T05:15:06.968Z,40.53
2018-05-17T05:17:34.566Z,44.43
2018-05-17T05:20:02.198Z,41.93
2018-05-17T05:22:29.823Z,38.60
2018-05-17T05:24:57.469Z,39.20
2018-05-17T05:27:25.082Z,35.87
2018-05-17T05:29:53.672Z,48.67
2018-05-17T05:32:21.330Z,41.53
2018-05-17T05:34:48.962Z,40.00
2018-05-17T05:37:16.747Z,46.00
2018-05-17T05:39:44.357Z,42.80
2018-05-17T05:42:12.224Z,42.20
2018-05-17T05:44:39.831Z,35.27
2018-05-17T05:47:07.449Z,48.17
2018-05-17T05:49:35.179Z,39.67
2018-05-17T05:52:02.768Z,41.30
2018-05-17T05:54:30.433Z,43.30
2018-05-17T05:56:58.040Z,41.43
2018-05-17T05:59:26.019Z,35.37
2018-05-17T06:01:53.630Z,41.50
2018-05-17T06:04:21.235Z,52.93
2018-05-17T06:06:48.870Z,42.23
2018-05-17T06:09:16.501Z,38.50
2018-05-17T06:11:44.179Z,42.17
2018-05-17T06:14:11.784Z,45.47
2018-05-17T06:16:39.456Z,62.80
2018-05-17T06:19:07.070Z,49.10
2018-05-17T06:21:34.682Z,53.23
2018-05-17T06:24:02.303Z,49.70
2018-05-17T06:26:29.907Z,44.73
2018-05-17T06:28:57.552Z,40.53
2018-05-17T06:31:25.187Z,43.07
2018-05-17T06:33:53.076Z,49.27
2018-05-17T06:36:20.733Z,48.23
2018-05-17T06:38:48.351Z,44.47
2018-05-17T06:41:15.976Z,40.07
2018-05-17T06:43:43.577Z,44.03
2018-05-17T06:46:11.218Z,47.43
2018-05-17T06:48:38.830Z,37.50
2018-05-17T06:51:06.491Z,42.60
2018-05-17T06:53:34.171Z,50.97
2018-05-17T06:56:01.742Z,42.20
2018-05-17T06:58:29.460Z,36.50
2018-05-17T07:00:57.093Z,42.63
2018-05-17T07:03:24.715Z,46.73
2018-05-17T07:05:52.319Z,40.00
2018-05-17T07:08:19.972Z,46.40
2018-05-17T07:10:47.581Z,45.20
2018-05-17T07:13:15.198Z,48.67
2018-05-17T07:15:42.939Z,47.90
2018-05-17T07:18:10.700Z,49.90
2018-05-17T07:20:38.199Z,42.73
2018-05-17T07:23:05.799Z,45.20
2018-05-17T07:25:33.591Z,36.87
2018-05-17T07:28:01.198Z,38.53
2018-05-17T07:30:28.809Z,44.97
2018-05-17T07:32:56.451Z,44.83
2018-05-17T07:35:24.071Z,48.43
2018-05-17T07:37:51.695Z,55.43
2018-05-17T07:40:19.360Z,60.00
2018-05-17T07:42:47.331Z,51.80
2018-05-17T07:45:14.931Z,46.77
2018-05-17T07:47:42.536Z,50.13
2018-05-17T07:50:10.169Z,49.27
2018-05-17T07:52:37.773Z,53.07
2018-05-17T07:55:05.443Z,50.47
2018-05-17T07:57:33.103Z,51.63
2018-05-17T08:00:00.716Z,44.97
2018-05-17T08:02:28.653Z,50.03
2018-05-17T08:04:56.250Z,54.50
2018-05-17T08:07:24.066Z,45.57
2018-05-17T08:09:51.671Z,45.23
2018-05-17T08:12:19.286Z,45.93
2018-05-17T08:14:46.913Z,42.37
2018-05-17T08:17:14.510Z,49.43
2018-05-17T08:19:42.279Z,50.77
2018-05-17T08:22:09.900Z,51.47
2018-05-17T08:24:37.548Z,43.93
2018-05-17T08:27:05.171Z,39.40
2018-05-17T08:29:32.793Z,41.63
2018-05-17T08:32:00.423Z,40.10
2018-05-17T08:34:28.051Z,55.77
2018-05-17T08:36:56.579Z,42.77
2018-05-17T08:39:24.185Z,47.93
2018-05-17T08:41:52.059Z,43.77
2018-05-17T08:44:19.623Z,45.70
2018-05-17T08:46:47.222Z,43.63
2018-05-17T08:49:14.847Z,79.67
2018-05-17T08:51:42.445Z,66.30
2018-05-17T08:54:10.088Z,40.43
2018-05-17T08:56:37.700Z,43.87
2018-05-17T08:59:05.678Z,50.47
2018-05-17T09:01:33.291Z,43.60
2018-05-17T09:04:00.895Z,39.70
2018-05-17T09:06:28.540Z,48.67
2018-05-17T09:08:56.147Z,52.73
2018-05-17T09:11:23.777Z,54.83
2018-05-17T09:13:51.402Z,57.67
2018-05-17T09:16:19.524Z,39.33
2018-05-17T09:18:47.155Z,44.23
2018-05-17T09:21:14.777Z,45.83
2018-05-17T09:23:42.397Z,40.93
2018-05-17T09:26:10.190Z,47.00
2018-05-17T09:28:37.924Z,41.10
2018-05-17T09:31:05.531Z,63.00
2018-05-17T09:33:33.349Z,44.97
2018-05-17T09:36:00.965Z,46.10
2018-05-17T09:38:28.578Z,41.23
2018-05-17T09:40:56.283Z,44.33
2018-05-17T09:43:23.844Z,30.77
2018-05-17T09:45:51.479Z,38.17
2018-05-17T09:48:19.161Z,39.27
2018-05-17T09:50:46.926Z,39.90
2018-05-17T09:53:14.689Z,38.73
2018-05-17T09:55:42.457Z,40.43
2018-05-17T09:58:10.078Z,59.00
2018-05-17T10:00:43.278Z,41.83
2018-05-17T10:03:10.911Z,35.37
2018-05-17T10:05:38.507Z,34.30
2018-05-17T10:08:06.497Z,32.10
2018-05-17T10:10:34.820Z,50.00
2018-05-17T10:13:03.034Z,32.80
2018-05-17T10:18:04.473Z,34.53
2018-05-17T10:20:32.114Z,49.67
2018-05-17T10:22:59.864Z,38.30
2018-05-17T10:25:27.513Z,29.37
2018-05-17T10:27:55.127Z,28.93
2018-05-17T10:30:22.727Z,42.30
2018-05-17T10:32:50.363Z,38.80
2018-05-17T10:35:17.993Z,43.97
2018-05-17T10:37:45.615Z,43.97
2018-05-17T10:40:14.993Z,46.07
2018-05-17T10:42:43.402Z,32.67
2018-05-17T10:45:11.180Z,42.17
2018-05-17T10:47:38.794Z,38.43
2018-05-17T10:50:06.418Z,41.03
2018-05-17T10:52:34.019Z,43.70
2018-05-17T10:55:01.642Z,30.90
2018-05-17T10:57:36.375Z,32.13
2018-05-17T11:00:04.786Z,32.20
2018-05-17T11:02:32.454Z,30.63
2018-05-17T11:05:00.027Z,45.27
2018-05-17T11:07:27.644Z,39.37
2018-05-17T11:09:55.243Z,38.83
2018-05-17T11:12:22.871Z,33.70
2018-05-17T11:14:50.479Z,38.63
2018-05-17T11:17:18.148Z,33.73
2018-05-17T11:19:45.750Z,32.30
2018-05-17T11:22:13.387Z,48.70
2018-05-17T11:24:41.029Z,41.60
2018-05-17T11:27:08.655Z,35.10
2018-05-17T11:29:36.305Z,35.23
2018-05-17T11:32:03.903Z,31.00
2018-05-17T11:34:31.508Z,30.83
2018-05-17T11:36:59.153Z,31.43
2018-05-17T11:39:26.762Z,32.40
2018-05-17T11:41:54.407Z,39.87
2018-05-17T11:44:22.015Z,40.43
2018-05-17T11:46:49.620Z,40.53
2018-05-17T11:49:17.253Z,35.60
2018-05-17T11:51:44.915Z,30.97
2018-05-17T11:54:12.543Z,43.00
2018-05-17T11:56:40.163Z,33.10
2018-05-17T11:59:08.211Z,26.07
2018-05-17T12:01:35.825Z,30.10
2018-05-17T12:04:03.438Z,30.17
2018-05-17T12:06:31.303Z,30.10
2018-05-17T12:08:58.928Z,22.43
2018-05-17T12:11:26.566Z,38.10
2018-05-17T12:13:54.174Z,39.53
2018-05-17T12:16:21.912Z,26.90
2018-05-17T12:18:49.515Z,27.53
2018-05-17T12:21:17.131Z,24.50
2018-05-17T12:23:44.877Z,25.07
2018-05-17T12:26:12.482Z,29.87
2018-05-17T12:28:40.110Z,24.17
2018-05-17T12:31:07.706Z,23.10
2018-05-17T12:33:35.349Z,30.90
2018-05-17T12:36:03.415Z,26.73
2018-05-17T12:38:31.030Z,24.77
2018-05-17T12:40:58.657Z,21.60
2018-05-17T12:43:26.267Z,23.50
2018-05-17T12:45:54.305Z,25.30
2018-05-17T12:48:21.910Z,21.93
2018-05-17T12:50:49.802Z,23.10
2018-05-17T12:53:17.476Z,26.13
2018-05-17T12:55:45.097Z,20.13
2018-05-17T12:58:12.717Z,26.63
2018-05-17T13:00:40.317Z,21.17
2018-05-17T13:03:08.262Z,18.40
2018-05-17T13:05:35.857Z,24.63
2018-05-17T13:08:03.641Z,15.50
2018-05-17T13:10:31.253Z,28.63
2018-05-17T13:12:58.873Z,20.77
2018-05-17T13:15:26.527Z,19.00
2018-05-17T13:17:54.134Z,20.53
2018-05-17T13:20:21.759Z,13.03
2018-05-17T13:22:49.370Z,23.63
2018-05-17T13:25:17.040Z,23.40
2018-05-17T13:27:44.642Z,19.97
2018-05-17T13:30:12.266Z,20.83
2018-05-17T13:32:39.894Z,19.00
2018-05-17T13:35:07.515Z,17.37
2018-05-17T13:37:35.474Z,81.47
2018-05-17T13:40:03.012Z,18.93
2018-05-17T13:42:30.863Z,24.03
2018-05-17T13:44:58.457Z,23.57
2018-05-17T13:47:26.094Z,29.83
2018-05-17T13:49:53.713Z,29.83
2018-05-17T13:52:21.307Z,22.20
2018-05-17T13:54:48.933Z,28.63
2018-05-17T13:57:16.546Z,44.13
2018-05-17T13:59:44.717Z,37.27
2018-05-17T14:02:12.377Z,30.97
2018-05-17T14:04:39.935Z,23.90
2018-05-17T14:07:07.559Z,27.40
2018-05-17T14:09:35.263Z,39.90
2018-05-17T14:12:02.886Z,31.30
2018-05-17T14:14:30.507Z,29.17
2018-05-17T14:16:58.558Z,33.60
2018-05-17T14:19:26.170Z,20.73
2018-05-17T14:21:53.770Z,23.63
2018-05-17T14:24:21.416Z,23.43
2018-05-17T14:26:49.093Z,27.33
2018-05-17T14:29:16.714Z,26.47
2018-05-17T14:31:44.432Z,16.63
2018-05-17T14:51:41.686Z,23.77
2018-05-17T14:54:09.327Z,26.47
2018-05-17T14:56:36.924Z,28.37
2018-05-17T14:59:04.567Z,22.67
2018-05-17T15:01:32.168Z,33.97
2018-05-17T15:03:59.855Z,28.43
2018-05-17T15:06:27.479Z,35.10
2018-05-17T15:08:55.159Z,30.53
2018-05-17T15:11:22.870Z,32.87
2018-05-17T15:13:50.396Z,29.80
2018-05-17T15:16:18.067Z,32.70
2018-05-17T15:18:45.695Z,33.63
2018-05-17T15:21:13.307Z,20.17
2018-05-17T15:23:40.935Z,26.70
2018-05-17T15:26:08.632Z,34.23
2018-05-17T15:28:36.229Z,30.63
2018-05-17T15:31:03.842Z,31.03
2018-05-17T15:33:31.490Z,23.13
2018-05-17T15:35:59.091Z,15.90
2018-05-17T15:38:26.692Z,16.00
2018-05-17T15:40:54.315Z,18.50
2018-05-17T15:43:21.924Z,24.53
2018-05-17T15:45:49.537Z,17.23
2018-05-17T15:48:17.210Z,28.63
2018-05-17T15:50:44.791Z,19.00
2018-05-17T15:53:12.950Z,24.87
2018-05-17T15:55:41.382Z,19.93
2018-05-17T15:58:08.997Z,25.80
2018-05-17T16:00:36.597Z,18.57
2018-05-17T16:03:04.469Z,20.13
2018-05-17T16:05:32.174Z,13.30
2018-05-17T16:07:59.768Z,26.20
2018-05-17T16:10:27.382Z,20.70
2018-05-17T16:12:54.982Z,11.67
2018-05-17T16:15:23.512Z,19.23
2018-05-17T16:17:50.973Z,16.40
2018-05-17T16:20:18.976Z,15.40
2018-05-17T16:22:46.569Z,23.73
2018-05-17T16:25:14.166Z,19.37
2018-05-17T16:27:41.774Z,16.33
2018-05-17T16:30:09.371Z,18.27
2018-05-17T16:32:37.078Z,23.20
2018-05-17T16:35:04.645Z,20.40
2018-05-17T16:37:32.422Z,21.93
2018-05-17T16:40:00.036Z,12.57
2018-05-17T16:42:27.674Z,11.30
2018-05-17T16:44:55.395Z,22.00
2018-05-17T16:47:22.995Z,14.73
2018-05-17T16:49:50.643Z,14.70
2018-05-17T16:52:18.242Z,16.93
2018-05-17T16:54:45.917Z,20.90
2018-05-17T16:57:13.518Z,20.83
2018-05-17T16:59:41.185Z,11.73
2018-05-17T17:02:08.806Z,22.23
2018-05-17T17:04:36.407Z,20.67
2018-05-17T17:07:04.037Z,16.77
2018-05-17T17:09:31.640Z,26.40
2018-05-17T17:11:59.418Z,18.37
2018-05-17T17:14:27.022Z,17.07
2018-05-17T17:16:54.627Z,19.37
2018-05-17T17:19:22.242Z,16.50
2018-05-17T17:21:49.838Z,14.50
2018-05-17T17:24:17.462Z,14.97
2018-05-17T17:26:45.103Z,23.93
2018-05-17T17:29:12.919Z,16.23
2018-05-17T17:31:40.518Z,21.37
2018-05-17T17:34:08.114Z,19.07
2018-05-17T17:36:35.764Z,29.77
2018-05-17T17:39:03.348Z,16.37
2018-05-17T17:41:30.968Z,19.53
2018-05-17T17:43:58.570Z,19.83
2018-05-17T17:46:26.455Z,16.47
2018-05-17T17:48:54.058Z,15.93
2018-05-17T17:51:21.675Z,19.53
2018-05-17T17:53:49.348Z,25.03
2018-05-17T17:56:16.943Z,14.77
2018-05-17T17:58:44.568Z,15.10
2018-05-17T18:01:12.243Z,12.40
2018-05-17T18:03:39.892Z,21.80
2018-05-17T18:06:07.484Z,18.47
2018-05-17T18:08:35.083Z,13.87
2018-05-17T18:11:02.712Z,22.77
2018-05-17T18:13:30.315Z,15.17
2018-05-17T18:15:57.988Z,21.33
2018-05-17T18:18:25.998Z,24.50
2018-05-17T18:20:53.625Z,12.97
2018-05-17T18:23:21.258Z,13.33
2018-05-17T18:25:48.879Z,18.27
2018-05-17T18:28:16.516Z,15.33
2018-05-17T18:30:44.114Z,21.27
2018-05-17T18:33:11.714Z,17.20
2018-05-17T18:35:39.337Z,29.03
2018-05-17T18:38:06.934Z,24.60
2018-05-17T18:40:34.554Z,14.70
2018-05-17T18:43:02.182Z,18.80
2018-05-17T18:45:30.226Z,16.93
2018-05-17T18:47:57.834Z,14.07
2018-05-17T18:50:25.437Z,16.17
2018-05-17T18:52:53.062Z,15.97
2018-05-17T18:55:22.917Z,25.20
2018-05-17T18:57:48.307Z,12.23
2018-05-17T19:00:15.984Z,10.53
2018-05-17T19:02:44.069Z,14.30
2018-05-17T19:05:11.665Z,16.53
2018-05-17T19:07:39.254Z,13.17
2018-05-17T19:10:06.880Z,16.30
2018-05-17T19:12:34.475Z,25.63
2018-05-17T19:15:02.120Z,14.50
2018-05-17T19:17:29.827Z,26.60
2018-05-17T19:19:57.575Z,16.87
2018-05-17T19:22:25.167Z,19.13
2018-05-17T19:24:52.762Z,12.33
2018-05-17T19:27:20.381Z,18.40
2018-05-17T19:29:47.991Z,20.30
2018-05-17T19:32:15.611Z,14.27
2018-05-17T19:34:43.368Z,16.20
2018-05-17T19:37:11.373Z,19.03
2018-05-17T19:39:38.906Z,22.80
2018-05-17T19:42:06.502Z,15.03
2018-05-17T19:44:34.122Z,19.60
2018-05-17T19:47:01.720Z,25.90
2018-05-17T19:49:29.352Z,18.47
2018-05-17T19:51:56.948Z,22.00
2018-05-17T19:54:24.813Z,26.93
2018-05-17T19:56:52.427Z,16.70
2018-05-17T19:59:20.160Z,15.10
2018-05-17T20:01:47.727Z,18.20
2018-05-17T20:04:15.335Z,12.43
2018-05-17T20:06:42.948Z,13.57
2018-05-17T20:09:10.570Z,17.03
2018-05-17T20:11:38.459Z,16.13
2018-05-17T20:14:06.071Z,27.80
2018-05-17T20:16:33.670Z,21.50
2018-05-17T20:19:01.308Z,21.87
2018-05-17T20:21:28.908Z,23.37
2018-05-17T20:23:56.557Z,19.47
2018-05-17T20:26:24.158Z,20.40
2018-05-17T20:28:51.802Z,31.40
2018-05-17T20:31:19.400Z,22.97
2018-05-17T20:33:46.996Z,21.97
2018-05-17T20:36:14.626Z,23.30
2018-05-17T20:38:42.240Z,20.37
2018-05-17T20:41:09.859Z,32.57
2018-05-17T20:43:37.800Z,20.10
2018-05-17T20:46:05.949Z,11.87
2018-05-17T20:48:33.553Z,16.47
2018-05-17T20:51:01.150Z,20.27
2018-05-17T20:53:28.817Z,46.03
2018-05-17T20:55:56.410Z,18.20
2018-05-17T20:58:24.051Z,20.63
2018-05-17T21:00:51.648Z,18.63
2018-05-17T21:03:19.330Z,18.87
2018-05-17T21:05:46.930Z,26.30
2018-05-17T21:08:14.536Z,23.67
2018-05-17T21:10:42.149Z,25.90
2018-05-17T21:13:09.929Z,24.53
2018-05-17T21:15:37.564Z,32.50
2018-05-17T21:18:05.175Z,26.00
2018-05-17T21:20:33.016Z,25.10
2018-05-17T21:23:00.668Z,16.80
2018-05-17T21:25:28.262Z,40.17
2018-05-17T21:27:55.883Z,20.30
2018-05-17T21:30:23.497Z,31.23
2018-05-17T21:32:51.135Z,26.70
2018-05-17T21:35:18.840Z,17.27
2018-05-17T21:37:46.440Z,25.83
2018-05-17T21:40:14.079Z,31.90
2018-05-17T21:42:41.682Z,24.20
2018-05-17T21:45:09.526Z,25.57
2018-05-17T21:47:37.119Z,26.43
2018-05-17T21:50:04.783Z,30.23
2018-05-17T21:52:32.695Z,20.00
2018-05-17T21:55:00.445Z,25.27
2018-05-17T21:57:28.068Z,32.83
2018-05-17T21:59:55.666Z,26.00
2018-05-17T22:02:23.341Z,23.07
2018-05-17T22:04:50.930Z,21.07
2018-05-17T22:07:18.527Z,23.73
2018-05-17T22:09:46.152Z,20.70
2018-05-17T22:12:13.819Z,20.70
2018-05-17T22:14:41.440Z,28.23
2018-05-17T22:17:09.031Z,23.20
2018-05-17T22:19:36.930Z,25.47
2018-05-17T22:22:04.523Z,27.43
2018-05-17T22:24:32.111Z,23.20
2018-05-17T22:26:59.724Z,18.13
2018-05-17T22:29:27.321Z,32.17
2018-05-17T22:31:54.971Z,27.20
2018-05-17T22:34:22.561Z,23.73
2018-05-17T22:36:50.220Z,34.67
2018-05-17T22:39:17.816Z,21.67
2018-05-17T22:41:45.418Z,26.80
2018-05-17T22:44:13.048Z,28.03
2018-05-17T22:46:40.646Z,22.60
2018-05-17T22:49:08.267Z,23.90
2018-05-17T22:51:35.870Z,29.97
2018-05-17T22:54:03.543Z,39.47
2018-05-17T22:56:42.926Z,25.17
2018-05-17T22:59:10.809Z,28.47
2018-05-17T23:01:38.382Z,16.03
2018-05-17T23:04:05.985Z,22.60
2018-05-17T23:06:33.615Z,36.00
2018-05-17T23:09:01.216Z,28.10
2018-05-17T23:11:28.891Z,40.93
2018-05-17T23:13:56.466Z,44.20
2018-05-17T23:16:24.124Z,35.07
2018-05-17T23:18:52.007Z,31.40
2018-05-17T23:21:19.603Z,36.53
2018-05-17T23:23:47.231Z,31.80
2018-05-17T23:26:14.851Z,25.00
2018-05-17T23:28:42.475Z,23.57
2018-05-17T23:31:10.088Z,36.93
2018-05-17T23:33:38.151Z,25.93
2018-05-17T23:36:05.747Z,24.50
2018-05-17T23:38:33.342Z,30.60
2018-05-17T23:41:12.710Z,23.23
2018-05-17T23:43:40.298Z,23.50
2018-05-17T23:46:07.915Z,22.30
2018-05-17T23:48:35.512Z,32.63
2018-05-17T23:51:03.358Z,24.33
2018-05-17T23:53:30.954Z,34.67
2018-05-17T23:55:58.554Z,24.00
2018-05-17T23:58:26.170Z,35.70
